createdAt,value
2019-05-30T00:02:00.531Z,80.60
2019-05-30T00:04:29.243Z,80.00
2019-05-30T00:06:58.669Z,80.10
2019-05-30T00:09:27.268Z,80.90
2019-05-30T00:11:56.650Z,81.70
2019-05-30T00:14:25.229Z,81.50
2019-05-30T00:16:54.621Z,82.00
2019-05-30T00:19:23.142Z,81.90
2019-05-30T00:21:51.562Z,82.60
2019-05-30T00:24:20.207Z,81.10
2019-05-30T00:26:50.428Z,80.90
2019-05-30T00:29:18.970Z,81.00
2019-05-30T00:31:47.419Z,81.50
2019-05-30T00:34:16.127Z,81.40
2019-05-30T00:36:44.833Z,81.50
2019-05-30T00:39:13.506Z,81.20
2019-05-30T00:41:42.007Z,82.00
2019-05-30T00:44:10.578Z,80.80
2019-05-30T00:46:39.140Z,80.60
2019-05-30T00:49:08.085Z,80.30
2019-05-30T00:51:36.530Z,80.50
2019-05-30T00:54:05.030Z,79.90
2019-05-30T00:56:33.542Z,81.00
2019-05-30T00:59:02.740Z,82.30
2019-05-30T01:01:31.248Z,84.30
2019-05-30T01:04:00.784Z,82.90
2019-05-30T01:06:29.565Z,83.00
2019-05-30T01:08:59.058Z,83.40
2019-05-30T01:11:27.772Z,82.40
2019-05-30T01:13:56.997Z,83.20
2019-05-30T01:16:25.624Z,83.10
2019-05-30T01:18:54.095Z,83.00
2019-05-30T01:21:22.985Z,83.20
2019-05-30T01:23:51.423Z,83.70
2019-05-30T01:26:21.452Z,84.00
2019-05-30T01:28:49.898Z,83.60
2019-05-30T01:31:18.531Z,83.80
2019-05-30T01:33:47.037Z,83.70
2019-05-30T01:36:16.496Z,83.90
2019-05-30T01:38:45.081Z,83.60
2019-05-30T01:41:16.901Z,84.10
2019-05-30T01:43:43.951Z,84.80
2019-05-30T01:46:12.399Z,85.10
2019-05-30T01:48:40.995Z,85.20
2019-05-30T01:51:09.654Z,85.60
2019-05-30T01:53:38.097Z,85.50
2019-05-30T01:56:06.856Z,85.60
2019-05-30T01:58:35.494Z,85.70
2019-05-30T02:01:19.087Z,85.40
2019-05-30T02:03:34.951Z,85.40
2019-05-30T02:06:03.481Z,86.30
2019-05-30T02:08:32.020Z,85.50
2019-05-30T02:11:01.313Z,86.70
2019-05-30T02:13:29.962Z,85.60
2019-05-30T02:15:59.620Z,85.30
2019-05-30T02:18:28.350Z,85.30
2019-05-30T02:20:56.787Z,84.90
2019-05-30T02:23:25.254Z,84.80
2019-05-30T02:25:53.844Z,85.70
2019-05-30T02:28:22.478Z,85.10
2019-05-30T02:30:50.909Z,85.90
2019-05-30T02:33:19.390Z,85.80
2019-05-30T02:35:47.842Z,85.90
2019-05-30T02:38:17.737Z,86.80
2019-05-30T02:40:46.191Z,86.40
2019-05-30T02:43:14.740Z,86.40
2019-05-30T02:45:43.246Z,86.20
2019-05-30T02:48:12.368Z,86.60
2019-05-30T02:50:41.331Z,86.90
2019-05-30T02:53:10.960Z,86.50
2019-05-30T02:55:40.347Z,87.00
2019-05-30T02:58:10.537Z,86.90
2019-05-30T03:00:39.796Z,87.60
2019-05-30T03:03:10.541Z,87.80
2019-05-30T03:05:38.565Z,88.10
2019-05-30T03:08:10.951Z,88.00
2019-05-30T03:10:37.815Z,88.00
2019-05-30T03:13:06.801Z,87.30
2019-05-30T03:15:36.772Z,87.20
2019-05-30T03:18:07.314Z,86.40
2019-05-30T03:20:35.523Z,86.20
2019-05-30T03:23:05.787Z,86.00
2019-05-30T03:25:34.569Z,86.50
2019-05-30T03:28:05.303Z,85.90
2019-05-30T03:30:34.018Z,85.90
2019-05-30T03:33:11.782Z,85.70
2019-05-30T03:35:41.136Z,85.50
2019-05-30T03:38:03.989Z,85.00
2019-05-30T03:40:33.781Z,85.20
2019-05-30T03:43:04.102Z,86.50
2019-05-30T03:45:34.639Z,85.90
2019-05-30T03:48:06.661Z,85.80
2019-05-30T03:50:38.823Z,85.20
2019-05-30T03:53:11.039Z,85.10
2019-05-30T03:55:42.675Z,84.90
2019-05-30T03:58:29.070Z,84.00
2019-05-30T04:01:00.626Z,84.00
2019-05-30T04:03:50.230Z,83.50
2019-05-30T04:06:27.864Z,83.00
2019-05-30T04:08:59.379Z,82.10
2019-05-30T04:11:39.777Z,81.80
2019-05-30T04:14:13.098Z,80.60
2019-05-30T04:16:41.336Z,80.40
2019-05-30T04:19:10.013Z,80.20
2019-05-30T04:21:38.915Z,79.60
2019-05-30T04:24:09.552Z,79.40
2019-05-30T04:26:38.143Z,79.00
2019-05-30T04:29:07.970Z,77.70
2019-05-30T04:31:36.914Z,78.20
2019-05-30T04:34:05.491Z,76.90
2019-05-30T04:36:34.244Z,76.40
2019-05-30T04:39:02.745Z,76.50
2019-05-30T04:41:31.211Z,75.40
2019-05-30T04:43:59.647Z,75.60
2019-05-30T04:46:28.191Z,75.80
2019-05-30T04:48:56.702Z,75.60
2019-05-30T04:51:25.152Z,74.70
2019-05-30T04:53:53.655Z,74.60
2019-05-30T04:56:22.289Z,74.50
2019-05-30T04:58:50.737Z,73.90
2019-05-30T05:01:20.119Z,74.10
2019-05-30T05:03:49.498Z,74.10
2019-05-30T05:06:18.390Z,73.40
2019-05-30T05:08:48.305Z,73.50
2019-05-30T05:11:20.491Z,73.40
2019-05-30T05:13:47.061Z,72.90
2019-05-30T05:16:25.998Z,73.20
2019-05-30T05:18:45.797Z,72.60
2019-05-30T05:21:14.706Z,73.00
2019-05-30T05:23:43.303Z,73.80
2019-05-30T05:26:11.742Z,74.60
2019-05-30T05:28:40.267Z,75.50
2019-05-30T05:31:08.717Z,75.80
2019-05-30T05:33:37.291Z,74.80
2019-05-30T05:36:05.760Z,73.70
2019-05-30T05:38:34.295Z,72.90
2019-05-30T05:41:04.079Z,72.10
2019-05-30T05:43:32.603Z,71.40
2019-05-30T05:46:01.031Z,71.30
2019-05-30T05:48:29.562Z,71.70
2019-05-30T05:50:58.002Z,72.00
2019-05-30T05:53:26.714Z,71.60
2019-05-30T05:55:55.246Z,71.70
2019-05-30T05:58:24.433Z,71.50
2019-05-30T06:00:53.923Z,71.70
2019-05-30T06:03:22.585Z,71.80
2019-05-30T06:05:53.433Z,71.70
2019-05-30T06:08:21.533Z,71.50
2019-05-30T06:10:50.298Z,71.10
2019-05-30T06:13:18.771Z,70.00
2019-05-30T06:15:47.620Z,70.30
2019-05-30T06:18:17.983Z,70.10
2019-05-30T06:20:46.867Z,68.90
2019-05-30T06:23:15.488Z,69.70
2019-05-30T06:25:43.980Z,69.20
2019-05-30T06:28:12.595Z,68.00
2019-05-30T06:30:41.281Z,67.90
2019-05-30T06:33:09.809Z,68.10
2019-05-30T06:35:38.570Z,68.00
2019-05-30T06:38:07.133Z,67.80
2019-05-30T06:40:35.684Z,67.90
2019-05-30T06:43:04.483Z,67.90
2019-05-30T06:45:33.238Z,67.40
2019-05-30T06:48:02.843Z,67.40
2019-05-30T06:50:31.411Z,66.20
2019-05-30T06:53:01.809Z,64.80
2019-05-30T06:55:31.333Z,64.40
2019-05-30T06:57:59.914Z,65.20
2019-05-30T07:00:29.807Z,63.90
2019-05-30T07:02:58.517Z,64.20
2019-05-30T07:05:28.429Z,63.70
2019-05-30T07:07:58.733Z,63.30
2019-05-30T07:10:27.450Z,62.50
2019-05-30T07:12:56.111Z,61.40
2019-05-30T07:15:25.122Z,60.90
2019-05-30T07:17:55.415Z,61.10
2019-05-30T07:20:27.508Z,61.80
2019-05-30T07:22:56.258Z,61.00
2019-05-30T07:25:25.722Z,60.90
2019-05-30T07:27:54.270Z,59.90
2019-05-30T07:30:23.784Z,59.90
2019-05-30T07:32:52.393Z,60.20
2019-05-30T07:35:21.011Z,59.60
2019-05-30T07:37:49.558Z,58.80
2019-05-30T07:40:19.643Z,59.00
2019-05-30T07:42:48.705Z,59.40
2019-05-30T07:45:17.622Z,58.70
2019-05-30T07:47:47.370Z,58.80
2019-05-30T07:50:15.953Z,58.30
2019-05-30T07:52:44.588Z,58.40
2019-05-30T07:55:13.413Z,56.70
2019-05-30T07:57:42.067Z,57.40
2019-05-30T08:00:15.609Z,57.70
2019-05-30T08:02:45.374Z,56.30
2019-05-30T08:05:23.604Z,56.00
2019-05-30T08:07:44.205Z,55.70
2019-05-30T08:10:14.645Z,55.90
2019-05-30T08:12:43.221Z,56.50
2019-05-30T08:15:11.900Z,56.30
2019-05-30T08:17:44.086Z,56.60
2019-05-30T08:20:11.872Z,55.70
2019-05-30T08:22:40.433Z,55.10
2019-05-30T08:25:10.234Z,54.90
2019-05-30T08:27:38.831Z,54.80
2019-05-30T08:30:08.955Z,54.20
2019-05-30T08:32:38.946Z,54.20
2019-05-30T08:35:08.242Z,55.50
2019-05-30T08:37:37.366Z,54.80
2019-05-30T08:40:08.191Z,54.20
2019-05-30T08:42:38.250Z,53.90
2019-05-30T08:45:10.106Z,53.80
2019-05-30T08:47:40.440Z,51.60
2019-05-30T08:50:10.600Z,50.90
2019-05-30T08:52:40.705Z,49.50
2019-05-30T08:55:10.508Z,50.40
2019-05-30T08:57:39.212Z,51.20
2019-05-30T09:00:10.398Z,50.10
2019-05-30T09:02:39.146Z,52.10
2019-05-30T09:05:08.168Z,51.70
2019-05-30T09:07:38.077Z,50.50
2019-05-30T09:10:09.148Z,51.50
2019-05-30T09:12:40.076Z,51.60
2019-05-30T09:15:13.862Z,47.90
2019-05-30T09:17:43.113Z,48.10
2019-05-30T09:20:14.932Z,48.40
2019-05-30T09:22:43.793Z,49.70
2019-05-30T09:25:13.268Z,49.50
2019-05-30T09:27:42.949Z,49.90
2019-05-30T09:30:13.908Z,50.90
2019-05-30T09:32:43.229Z,50.00
2019-05-30T09:35:13.906Z,47.80
2019-05-30T09:37:44.044Z,47.50
2019-05-30T09:40:14.034Z,46.50
2019-05-30T09:42:44.661Z,46.60
2019-05-30T09:45:15.369Z,48.30
2019-05-30T09:47:46.659Z,46.30
2019-05-30T09:50:14.883Z,45.80
2019-05-30T09:52:43.651Z,45.80
2019-05-30T09:55:13.155Z,44.60
2019-05-30T09:57:43.020Z,42.60
2019-05-30T10:00:18.035Z,42.20
2019-05-30T10:02:46.832Z,40.50
2019-05-30T10:05:16.451Z,38.80
2019-05-30T10:07:45.573Z,40.80
2019-05-30T10:10:16.139Z,42.30
2019-05-30T10:12:45.583Z,43.10
2019-05-30T10:15:15.772Z,36.80
2019-05-30T10:17:45.669Z,39.40
2019-05-30T10:20:16.533Z,39.60
2019-05-30T10:22:48.174Z,37.70
2019-05-30T10:25:15.635Z,37.10
2019-05-30T10:27:46.266Z,37.90
2019-05-30T10:30:15.567Z,36.00
2019-05-30T10:32:45.396Z,36.90
2019-05-30T10:35:14.636Z,39.10
2019-05-30T10:37:45.304Z,37.60
2019-05-30T10:40:14.111Z,39.80
2019-05-30T10:42:42.654Z,40.80
2019-05-30T10:45:12.083Z,40.40
2019-05-30T10:47:40.550Z,38.10
2019-05-30T10:50:10.140Z,38.30
2019-05-30T10:52:38.762Z,37.40
2019-05-30T10:55:10.992Z,37.80
2019-05-30T10:57:39.676Z,38.40
2019-05-30T11:00:16.713Z,37.50
2019-05-30T11:02:46.073Z,38.70
2019-05-30T11:05:16.866Z,36.90
2019-05-30T11:08:06.623Z,38.40
2019-05-30T11:10:40.313Z,40.10
2019-05-30T11:13:11.926Z,40.70
2019-05-30T11:15:40.554Z,41.00
2019-05-30T11:18:09.311Z,41.90
2019-05-30T11:20:39.407Z,39.70
2019-05-30T11:23:08.283Z,40.10
2019-05-30T11:25:36.835Z,40.80
2019-05-30T11:28:08.252Z,41.80
2019-05-30T11:30:37.078Z,37.90
2019-05-30T11:33:06.719Z,36.40
2019-05-30T11:35:35.853Z,35.90
2019-05-30T11:38:04.776Z,35.50
2019-05-30T11:40:33.590Z,35.20
2019-05-30T11:43:02.441Z,35.10
2019-05-30T11:45:30.974Z,35.70
2019-05-30T11:48:00.116Z,36.40
2019-05-30T11:50:29.165Z,36.50
2019-05-30T11:52:57.985Z,35.70
2019-05-30T11:55:26.615Z,37.10
2019-05-30T11:57:56.253Z,39.10
2019-05-30T12:00:25.689Z,39.20
2019-05-30T12:02:54.422Z,40.10
2019-05-30T12:05:23.110Z,37.30
2019-05-30T12:07:52.863Z,37.00
2019-05-30T12:10:22.346Z,39.40
2019-05-30T12:12:51.178Z,38.30
2019-05-30T12:15:20.572Z,37.20
2019-05-30T12:17:49.157Z,34.90
2019-05-30T12:20:18.860Z,36.20
2019-05-30T12:22:47.499Z,37.50
2019-05-30T12:25:16.787Z,36.60
2019-05-30T12:27:45.531Z,37.60
2019-05-30T12:30:15.278Z,37.10
2019-05-30T12:32:44.333Z,39.10
2019-05-30T12:35:14.780Z,40.00
2019-05-30T12:37:54.066Z,39.90
2019-05-30T12:40:14.453Z,39.40
2019-05-30T12:42:43.059Z,39.60
2019-05-30T12:45:14.884Z,39.30
2019-05-30T12:47:43.626Z,39.10
2019-05-30T12:50:16.590Z,40.30
2019-05-30T12:52:44.105Z,39.60
2019-05-30T12:55:13.119Z,40.20
2019-05-30T12:57:41.734Z,39.10
2019-05-30T13:00:17.665Z,38.70
2019-05-30T13:02:43.672Z,40.60
2019-05-30T13:05:12.641Z,39.60
2019-05-30T13:07:41.211Z,39.60
2019-05-30T13:10:10.497Z,40.50
2019-05-30T13:12:39.164Z,41.50
2019-05-30T13:15:08.659Z,39.80
2019-05-30T13:17:37.199Z,38.10
2019-05-30T13:20:09.970Z,37.40
2019-05-30T13:22:38.706Z,38.70
2019-05-30T13:25:09.278Z,37.40
2019-05-30T13:27:37.895Z,37.90
2019-05-30T13:30:08.697Z,37.90
2019-05-30T13:32:37.498Z,36.90
2019-05-30T13:35:11.978Z,38.40
2019-05-30T13:37:40.885Z,38.90
2019-05-30T13:40:24.301Z,40.40
2019-05-30T13:42:42.456Z,41.00
2019-05-30T13:45:13.146Z,40.90
2019-05-30T13:47:41.836Z,43.10
2019-05-30T13:50:15.264Z,41.90
2019-05-30T13:52:43.794Z,42.70
2019-05-30T13:55:12.563Z,41.60
2019-05-30T13:57:41.022Z,41.30
2019-05-30T14:00:11.284Z,41.60
2019-05-30T14:02:40.900Z,41.80
2019-05-30T14:05:10.527Z,42.00
2019-05-30T14:07:39.334Z,41.80
2019-05-30T14:10:08.932Z,42.10
2019-05-30T14:12:37.524Z,42.70
2019-05-30T14:15:13.555Z,42.90
2019-05-30T14:17:40.219Z,42.90
2019-05-30T14:20:11.057Z,42.60
2019-05-30T14:22:40.473Z,42.20
2019-05-30T14:25:09.847Z,42.40
2019-05-30T14:27:38.970Z,41.80
2019-05-30T14:30:09.120Z,42.40
2019-05-30T14:32:37.957Z,40.10
2019-05-30T14:35:11.684Z,39.20
2019-05-30T14:37:39.872Z,39.30
2019-05-30T14:40:11.093Z,37.30
2019-05-30T14:42:39.971Z,37.00
2019-05-30T14:45:10.591Z,37.40
2019-05-30T14:47:38.487Z,39.00
2019-05-30T14:50:08.902Z,38.60
2019-05-30T14:52:37.506Z,39.00
2019-05-30T14:55:08.899Z,39.90
2019-05-30T14:57:38.136Z,39.10
2019-05-30T15:00:13.494Z,38.80
2019-05-30T15:02:43.807Z,38.40
2019-05-30T15:05:13.827Z,39.30
2019-05-30T15:07:43.212Z,37.10
2019-05-30T15:10:13.619Z,36.50
2019-05-30T15:12:44.051Z,37.40
2019-05-30T15:15:16.714Z,36.60
2019-05-30T15:17:44.838Z,38.10
2019-05-30T15:20:14.260Z,37.10
2019-05-30T15:22:42.865Z,37.10
2019-05-30T15:25:12.045Z,36.80
2019-05-30T15:27:40.758Z,36.30
2019-05-30T15:30:10.690Z,35.00
2019-05-30T15:32:39.469Z,35.20
2019-05-30T15:35:10.951Z,35.80
2019-05-30T15:37:40.936Z,36.60
2019-05-30T15:40:12.928Z,38.20
2019-05-30T15:42:41.733Z,39.20
2019-05-30T15:45:11.914Z,38.80
2019-05-30T15:47:40.990Z,39.40
2019-05-30T15:50:11.523Z,39.70
2019-05-30T15:52:40.737Z,40.00
2019-05-30T15:55:09.627Z,38.90
2019-05-30T15:57:38.306Z,38.60
2019-05-30T16:00:12.092Z,38.90
2019-05-30T16:02:40.895Z,37.00
2019-05-30T16:05:12.347Z,37.70
2019-05-30T16:07:41.039Z,37.70
2019-05-30T16:10:11.046Z,36.30
2019-05-30T16:12:39.716Z,37.40
2019-05-30T16:15:11.640Z,37.90
2019-05-30T16:17:40.498Z,38.00
2019-05-30T16:20:10.297Z,39.00
2019-05-30T16:22:38.887Z,39.60
2019-05-30T16:25:07.881Z,39.90
2019-05-30T16:27:36.674Z,39.70
2019-05-30T16:30:07.981Z,39.80
2019-05-30T16:32:36.776Z,40.50
2019-05-30T16:35:08.953Z,41.90
2019-05-30T16:37:37.554Z,41.40
2019-05-30T16:40:08.855Z,41.20
2019-05-30T16:42:37.357Z,40.60
2019-05-30T16:45:08.414Z,40.20
2019-05-30T16:47:38.353Z,39.60
2019-05-30T16:50:11.907Z,40.70
2019-05-30T16:52:40.488Z,41.20
2019-05-30T16:55:10.851Z,40.50
2019-05-30T16:57:39.528Z,40.90
2019-05-30T17:00:09.997Z,40.70
2019-05-30T17:02:38.571Z,41.00
2019-05-30T17:05:07.441Z,41.40
2019-05-30T17:07:35.958Z,41.60
2019-05-30T17:10:21.228Z,42.90
2019-05-30T17:12:36.396Z,43.90
2019-05-30T17:15:08.036Z,44.60
2019-05-30T17:17:36.724Z,45.20
2019-05-30T17:20:07.235Z,44.80
2019-05-30T17:22:35.695Z,44.10
2019-05-30T17:25:08.673Z,44.30
2019-05-30T17:27:37.457Z,45.20
2019-05-30T17:30:11.567Z,45.80
2019-05-30T17:32:40.018Z,45.10
2019-05-30T17:35:09.858Z,44.60
2019-05-30T17:37:38.486Z,44.90
2019-05-30T17:40:08.284Z,44.50
2019-05-30T17:42:36.952Z,43.90
2019-05-30T17:45:08.683Z,44.40
2019-05-30T17:47:37.190Z,45.40
2019-05-30T17:50:11.427Z,46.20
2019-05-30T17:52:40.080Z,46.40
2019-05-30T17:55:08.801Z,46.80
2019-05-30T17:57:37.475Z,46.80
2019-05-30T18:00:12.484Z,46.50
2019-05-30T18:02:42.048Z,46.50
2019-05-30T18:05:11.455Z,46.30
2019-05-30T18:07:40.279Z,46.10
2019-05-30T18:10:09.924Z,46.30
2019-05-30T18:12:38.471Z,47.40
2019-05-30T18:15:11.418Z,47.30
2019-05-30T18:17:39.956Z,48.30
2019-05-30T18:20:09.690Z,49.00
2019-05-30T18:22:38.152Z,49.40
2019-05-30T18:25:09.202Z,50.30
2019-05-30T18:27:37.678Z,50.90
2019-05-30T18:30:09.660Z,51.00
2019-05-30T18:32:38.125Z,51.50
2019-05-30T18:35:07.327Z,52.00
2019-05-30T18:37:36.362Z,52.10
2019-05-30T18:40:09.687Z,52.40
2019-05-30T18:42:38.978Z,52.90
2019-05-30T18:45:12.497Z,53.30
2019-05-30T18:47:40.973Z,53.40
2019-05-30T18:50:09.698Z,53.70
2019-05-30T18:52:38.245Z,54.00
2019-05-30T18:55:07.837Z,54.00
2019-05-30T18:57:37.349Z,54.40
2019-05-30T19:00:09.869Z,55.10
2019-05-30T19:02:39.419Z,55.30
2019-05-30T19:05:08.215Z,55.40
2019-05-30T19:07:37.201Z,55.30
2019-05-30T19:10:06.498Z,55.60
2019-05-30T19:12:36.375Z,56.00
2019-05-30T19:15:08.504Z,56.00
2019-05-30T19:17:37.298Z,56.00
2019-05-30T19:20:07.802Z,56.30
2019-05-30T19:22:36.568Z,56.80
2019-05-30T19:25:07.235Z,56.90
2019-05-30T19:27:38.002Z,57.30
2019-05-30T19:30:11.495Z,57.10
2019-05-30T19:32:39.962Z,57.50
2019-05-30T19:35:08.989Z,57.60
2019-05-30T19:37:37.808Z,57.50
2019-05-30T19:40:07.874Z,57.90
2019-05-30T19:42:38.488Z,57.70
2019-05-30T19:45:09.483Z,58.10
2019-05-30T19:47:38.749Z,58.10
2019-05-30T19:50:10.452Z,58.00
2019-05-30T19:52:39.293Z,58.80
2019-05-30T19:55:10.609Z,58.40
2019-05-30T19:57:43.383Z,58.10
2019-05-30T20:00:16.383Z,58.20
2019-05-30T20:02:45.219Z,58.50
2019-05-30T20:05:15.150Z,58.40
2019-05-30T20:07:45.370Z,58.40
2019-05-30T20:10:14.478Z,58.50
2019-05-30T20:12:43.008Z,58.70
2019-05-30T20:15:13.610Z,58.70
2019-05-30T20:17:42.244Z,59.10
2019-05-30T20:20:11.575Z,59.30
2019-05-30T20:22:44.599Z,59.50
2019-05-30T20:25:14.286Z,59.60
2019-05-30T20:27:43.068Z,59.50
2019-05-30T20:30:13.018Z,59.60
2019-05-30T20:32:41.526Z,59.60
2019-05-30T20:35:10.270Z,59.60
2019-05-30T20:37:38.994Z,59.80
2019-05-30T20:40:09.168Z,60.00
2019-05-30T20:42:39.329Z,60.30
2019-05-30T20:45:10.556Z,60.00
2019-05-30T20:47:42.083Z,60.10
2019-05-30T20:50:14.884Z,60.10
2019-05-30T20:52:45.307Z,60.00
2019-05-30T20:55:13.682Z,60.00
2019-05-30T20:57:42.565Z,60.10
2019-05-30T21:00:12.781Z,60.70
2019-05-30T21:02:43.507Z,60.70
2019-05-30T21:05:13.821Z,61.20
2019-05-30T21:07:44.284Z,62.20
2019-05-30T21:10:15.233Z,61.90
2019-05-30T21:12:48.743Z,62.00
2019-05-30T21:15:17.480Z,62.20
2019-05-30T21:17:46.499Z,62.40
2019-05-30T21:20:15.921Z,62.80
2019-05-30T21:22:44.797Z,62.60
2019-05-30T21:25:14.039Z,62.70
2019-05-30T21:27:43.051Z,62.60
2019-05-30T21:30:12.388Z,62.90
2019-05-30T21:32:42.083Z,63.90
2019-05-30T21:35:11.931Z,65.00
2019-05-30T21:37:41.727Z,65.80
2019-05-30T21:40:10.611Z,66.60
2019-05-30T21:42:56.729Z,66.80
2019-05-30T21:45:09.939Z,68.00
2019-05-30T21:47:38.787Z,69.00
2019-05-30T21:50:09.368Z,69.70
2019-05-30T21:52:39.278Z,69.80
2019-05-30T21:55:08.111Z,70.10
2019-05-30T21:57:36.645Z,71.10
2019-05-30T22:00:13.563Z,70.30
2019-05-30T22:02:45.113Z,70.50
2019-05-30T22:05:14.119Z,69.90
2019-05-30T22:07:43.022Z,70.00
2019-05-30T22:10:11.831Z,72.40
2019-05-30T22:12:41.344Z,73.90
2019-05-30T22:15:10.323Z,74.60
2019-05-30T22:17:38.781Z,74.30
2019-05-30T22:20:07.851Z,74.70
2019-05-30T22:22:36.396Z,74.40
2019-05-30T22:25:06.199Z,74.10
2019-05-30T22:27:34.671Z,73.90
2019-05-30T22:30:03.550Z,73.60
2019-05-30T22:32:32.012Z,73.40
2019-05-30T22:35:00.455Z,73.60
2019-05-30T22:37:28.965Z,73.40
2019-05-30T22:39:57.628Z,73.50
2019-05-30T22:42:26.082Z,73.50
2019-05-30T22:44:54.566Z,73.70
2019-05-30T22:47:23.069Z,74.50
2019-05-30T22:49:52.845Z,74.50
2019-05-30T22:52:21.600Z,74.30
2019-05-30T22:54:51.246Z,75.20
2019-05-30T22:57:19.818Z,75.20
2019-05-30T22:59:48.829Z,74.90
2019-05-30T23:02:17.619Z,75.20
2019-05-30T23:04:46.093Z,75.10
2019-05-30T23:07:14.610Z,75.00
2019-05-30T23:09:43.333Z,75.10
2019-05-30T23:12:11.770Z,75.00
2019-05-30T23:14:40.258Z,75.00
2019-05-30T23:17:08.790Z,75.10
2019-05-30T23:19:37.351Z,75.30
2019-05-30T23:22:05.856Z,75.40
2019-05-30T23:24:34.335Z,75.50
2019-05-30T23:27:02.953Z,75.50
2019-05-30T23:29:31.519Z,76.00
2019-05-30T23:32:00.161Z,76.50
2019-05-30T23:34:28.829Z,75.90
2019-05-30T23:36:58.767Z,75.20
2019-05-30T23:39:27.404Z,75.50
2019-05-30T23:41:57.143Z,76.00
2019-05-30T23:44:26.014Z,76.40
2019-05-30T23:46:55.548Z,76.10
2019-05-30T23:49:24.250Z,76.50
2019-05-30T23:51:54.486Z,78.50
2019-05-30T23:54:22.983Z,78.60
2019-05-30T23:56:52.355Z,78.30
2019-05-30T23:59:21.022Z,78.60
